sensor_id;sensor_type;location;lat;lon;timestamp;pressure;altitude;pressure_sealevel;temperature
45850;BMP180;10739;52.198;20.908;2022-08-27T00:00:46;100094.00;;;25.90
45850;BMP180;10739;52.198;20.908;2022-08-27T00:03:13;100090.00;;;26.00
45850;BMP180;10739;52.198;20.908;2022-08-27T00:05:40;100097.00;;;25.90
45850;BMP180;10739;52.198;20.908;2022-08-27T00:08:08;100089.00;;;26.00
45850;BMP180;10739;52.198;20.908;2022-08-27T00:10:34;100081.00;;;25.90
45850;BMP180;10739;52.198;20.908;2022-08-27T00:13:00;100073.00;;;26.00
45850;BMP180;10739;52.198;20.908;2022-08-27T00:15:27;100066.00;;;26.10
45850;BMP180;10739;52.198;20.908;2022-08-27T00:17:54;100062.00;;;26.00
45850;BMP180;10739;52.198;20.908;2022-08-27T00:20:23;100075.00;;;26.00
45850;BMP180;10739;52.198;20.908;2022-08-27T00:22:49;100062.00;;;26.00
45850;BMP180;10739;52.198;20.908;2022-08-27T00:25:15;100069.00;;;26.00
45850;BMP180;10739;52.198;20.908;2022-08-27T00:27:42;100061.00;;;25.90
45850;BMP180;10739;52.198;20.908;2022-08-27T00:30:14;100054.00;;;25.80
45850;BMP180;10739;52.198;20.908;2022-08-27T00:32:41;100051.00;;;25.80
45850;BMP180;10739;52.198;20.908;2022-08-27T00:35:08;100052.00;;;25.80
45850;BMP180;10739;52.198;20.908;2022-08-27T00:37:34;100054.00;;;25.90
45850;BMP180;10739;52.198;20.908;2022-08-27T00:40:04;100063.00;;;25.90
45850;BMP180;10739;52.198;20.908;2022-08-27T00:42:31;100060.00;;;26.00
45850;BMP180;10739;52.198;20.908;2022-08-27T00:44:57;100064.00;;;26.00
45850;BMP180;10739;52.198;20.908;2022-08-27T00:47:29;100069.00;;;25.90
45850;BMP180;10739;52.198;20.908;2022-08-27T00:50:10;100067.00;;;26.10
45850;BMP180;10739;52.198;20.908;2022-08-27T00:52:53;100069.00;;;25.90
45850;BMP180;10739;52.198;20.908;2022-08-27T00:55:27;100070.00;;;25.80
45850;BMP180;10739;52.198;20.908;2022-08-27T01:00:46;100056.00;;;25.80
45850;BMP180;10739;52.198;20.908;2022-08-27T01:03:14;100063.00;;;25.70
45850;BMP180;10739;52.198;20.908;2022-08-27T01:05:43;100056.00;;;25.80
45850;BMP180;10739;52.198;20.908;2022-08-27T01:08:17;100056.00;;;25.80
45850;BMP180;10739;52.198;20.908;2022-08-27T01:10:45;100060.00;;;25.80
45850;BMP180;10739;52.198;20.908;2022-08-27T01:13:16;100056.00;;;25.70
45850;BMP180;10739;52.198;20.908;2022-08-27T01:15:43;100053.00;;;25.70
45850;BMP180;10739;52.198;20.908;2022-08-27T01:18:12;100053.00;;;25.50
45850;BMP180;10739;52.198;20.908;2022-08-27T01:21:11;100041.00;;;25.60
45850;BMP180;10739;52.198;20.908;2022-08-27T01:26:40;100050.00;;;25.60
45850;BMP180;10739;52.198;20.908;2022-08-27T01:29:07;100051.00;;;25.60
45850;BMP180;10739;52.198;20.908;2022-08-27T01:31:33;100044.00;;;25.60
45850;BMP180;10739;52.198;20.908;2022-08-27T01:34:03;100045.00;;;25.50
45850;BMP180;10739;52.198;20.908;2022-08-27T01:36:29;100046.00;;;25.40
45850;BMP180;10739;52.198;20.908;2022-08-27T01:38:56;100041.00;;;25.40
45850;BMP180;10739;52.198;20.908;2022-08-27T01:41:24;100033.00;;;25.40
45850;BMP180;10739;52.198;20.908;2022-08-27T01:43:51;100040.00;;;25.40
45850;BMP180;10739;52.198;20.908;2022-08-27T01:46:24;100047.00;;;25.30
45850;BMP180;10739;52.198;20.908;2022-08-27T01:48:51;100042.00;;;25.40
45850;BMP180;10739;52.198;20.908;2022-08-27T01:51:18;100046.00;;;25.40
45850;BMP180;10739;52.198;20.908;2022-08-27T01:53:44;100040.00;;;25.40
45850;BMP180;10739;52.198;20.908;2022-08-27T01:56:11;100046.00;;;25.40
45850;BMP180;10739;52.198;20.908;2022-08-27T01:58:37;100037.00;;;25.30
45850;BMP180;10739;52.198;20.908;2022-08-27T02:01:09;100041.00;;;25.30
45850;BMP180;10739;52.198;20.908;2022-08-27T02:03:36;100043.00;;;25.30
45850;BMP180;10739;52.198;20.908;2022-08-27T02:06:08;100041.00;;;25.10
45850;BMP180;10739;52.198;20.908;2022-08-27T02:08:35;100039.00;;;25.10
45850;BMP180;10739;52.198;20.908;2022-08-27T02:11:03;100034.00;;;25.20
45850;BMP180;10739;52.198;20.908;2022-08-27T02:13:29;100031.00;;;25.30
45850;BMP180;10739;52.198;20.908;2022-08-27T02:15:55;100038.00;;;25.30
45850;BMP180;10739;52.198;20.908;2022-08-27T02:18:22;100041.00;;;25.20
45850;BMP180;10739;52.198;20.908;2022-08-27T02:20:48;100044.00;;;25.00
45850;BMP180;10739;52.198;20.908;2022-08-27T02:23:15;100034.00;;;25.00
45850;BMP180;10739;52.198;20.908;2022-08-27T02:25:42;100033.00;;;24.90
45850;BMP180;10739;52.198;20.908;2022-08-27T02:28:09;100034.00;;;24.80
45850;BMP180;10739;52.198;20.908;2022-08-27T02:30:36;100033.00;;;24.80
45850;BMP180;10739;52.198;20.908;2022-08-27T02:33:04;100042.00;;;24.70
45850;BMP180;10739;52.198;20.908;2022-08-27T02:35:33;100044.00;;;24.50
45850;BMP180;10739;52.198;20.908;2022-08-27T02:38:01;100050.00;;;24.50
45850;BMP180;10739;52.198;20.908;2022-08-27T02:40:28;100049.00;;;24.40
45850;BMP180;10739;52.198;20.908;2022-08-27T02:42:54;100048.00;;;24.50
45850;BMP180;10739;52.198;20.908;2022-08-27T02:45:20;100047.00;;;24.60
45850;BMP180;10739;52.198;20.908;2022-08-27T02:47:47;100045.00;;;24.50
45850;BMP180;10739;52.198;20.908;2022-08-27T02:50:14;100049.00;;;24.40
45850;BMP180;10739;52.198;20.908;2022-08-27T02:52:41;100051.00;;;24.40
45850;BMP180;10739;52.198;20.908;2022-08-27T02:55:08;100054.00;;;24.40
45850;BMP180;10739;52.198;20.908;2022-08-27T02:57:35;100041.00;;;24.40
45850;BMP180;10739;52.198;20.908;2022-08-27T03:00:02;100039.00;;;24.50
45850;BMP180;10739;52.198;20.908;2022-08-27T03:02:28;100042.00;;;24.50
45850;BMP180;10739;52.198;20.908;2022-08-27T03:04:54;100035.00;;;24.50
45850;BMP180;10739;52.198;20.908;2022-08-27T03:07:20;100035.00;;;24.60
45850;BMP180;10739;52.198;20.908;2022-08-27T03:09:50;100037.00;;;24.60
45850;BMP180;10739;52.198;20.908;2022-08-27T03:12:16;100035.00;;;24.50
45850;BMP180;10739;52.198;20.908;2022-08-27T03:14:43;100034.00;;;24.60
45850;BMP180;10739;52.198;20.908;2022-08-27T03:17:09;100034.00;;;24.50
45850;BMP180;10739;52.198;20.908;2022-08-27T03:19:54;100033.00;;;24.50
45850;BMP180;10739;52.198;20.908;2022-08-27T03:22:20;100033.00;;;24.40
45850;BMP180;10739;52.198;20.908;2022-08-27T03:24:46;100031.00;;;24.30
45850;BMP180;10739;52.198;20.908;2022-08-27T03:27:13;100033.00;;;24.20
45850;BMP180;10739;52.198;20.908;2022-08-27T03:29:40;100031.00;;;24.20
45850;BMP180;10739;52.198;20.908;2022-08-27T03:32:06;100026.00;;;24.30
45850;BMP180;10739;52.198;20.908;2022-08-27T03:34:33;100024.00;;;24.40
45850;BMP180;10739;52.198;20.908;2022-08-27T03:36:59;100030.00;;;24.40
45850;BMP180;10739;52.198;20.908;2022-08-27T03:39:26;100020.00;;;24.30
45850;BMP180;10739;52.198;20.908;2022-08-27T03:41:52;100032.00;;;24.30
45850;BMP180;10739;52.198;20.908;2022-08-27T03:44:23;100029.00;;;24.20
45850;BMP180;10739;52.198;20.908;2022-08-27T03:46:51;100024.00;;;24.20
45850;BMP180;10739;52.198;20.908;2022-08-27T03:49:19;100030.00;;;24.10
45850;BMP180;10739;52.198;20.908;2022-08-27T03:51:47;100033.00;;;24.10
45850;BMP180;10739;52.198;20.908;2022-08-27T03:54:14;100027.00;;;23.90
45850;BMP180;10739;52.198;20.908;2022-08-27T03:56:40;100028.00;;;24.00
45850;BMP180;10739;52.198;20.908;2022-08-27T03:59:06;100025.00;;;24.00
45850;BMP180;10739;52.198;20.908;2022-08-27T04:01:32;100018.00;;;24.10
45850;BMP180;10739;52.198;20.908;2022-08-27T04:03:59;100020.00;;;24.10
45850;BMP180;10739;52.198;20.908;2022-08-27T04:06:25;100022.00;;;24.20
45850;BMP180;10739;52.198;20.908;2022-08-27T04:08:53;100025.00;;;24.30
45850;BMP180;10739;52.198;20.908;2022-08-27T04:11:19;100030.00;;;24.40
45850;BMP180;10739;52.198;20.908;2022-08-27T04:13:46;100028.00;;;24.40
45850;BMP180;10739;52.198;20.908;2022-08-27T04:16:12;100038.00;;;24.30
45850;BMP180;10739;52.198;20.908;2022-08-27T04:18:39;100024.00;;;24.20
45850;BMP180;10739;52.198;20.908;2022-08-27T04:21:08;100028.00;;;24.20
45850;BMP180;10739;52.198;20.908;2022-08-27T04:23:37;100024.00;;;24.10
45850;BMP180;10739;52.198;20.908;2022-08-27T04:26:06;100016.00;;;24.10
45850;BMP180;10739;52.198;20.908;2022-08-27T04:28:33;100013.00;;;24.10
45850;BMP180;10739;52.198;20.908;2022-08-27T04:31:02;100020.00;;;24.10
45850;BMP180;10739;52.198;20.908;2022-08-27T04:33:29;100016.00;;;24.20
45850;BMP180;10739;52.198;20.908;2022-08-27T04:36:05;100022.00;;;24.40
45850;BMP180;10739;52.198;20.908;2022-08-27T04:38:32;100035.00;;;24.40
45850;BMP180;10739;52.198;20.908;2022-08-27T04:41:03;100031.00;;;24.40
45850;BMP180;10739;52.198;20.908;2022-08-27T04:43:55;100038.00;;;24.30
45850;BMP180;10739;52.198;20.908;2022-08-27T04:46:32;100035.00;;;24.40
45850;BMP180;10739;52.198;20.908;2022-08-27T04:49:03;100032.00;;;24.40
45850;BMP180;10739;52.198;20.908;2022-08-27T04:51:30;100039.00;;;24.40
45850;BMP180;10739;52.198;20.908;2022-08-27T04:53:57;100027.00;;;24.40
45850;BMP180;10739;52.198;20.908;2022-08-27T04:56:23;100028.00;;;24.40
45850;BMP180;10739;52.198;20.908;2022-08-27T04:58:50;100023.00;;;24.50
45850;BMP180;10739;52.198;20.908;2022-08-27T05:01:20;100022.00;;;24.60
45850;BMP180;10739;52.198;20.908;2022-08-27T05:03:47;100022.00;;;24.70
45850;BMP180;10739;52.198;20.908;2022-08-27T05:06:14;100020.00;;;24.60
45850;BMP180;10739;52.198;20.908;2022-08-27T05:08:40;100025.00;;;24.80
45850;BMP180;10739;52.198;20.908;2022-08-27T05:11:10;100017.00;;;24.80
45850;BMP180;10739;52.198;20.908;2022-08-27T05:13:38;100016.00;;;24.80
45850;BMP180;10739;52.198;20.908;2022-08-27T05:16:09;100027.00;;;25.00
45850;BMP180;10739;52.198;20.908;2022-08-27T05:18:37;100029.00;;;25.00
45850;BMP180;10739;52.198;20.908;2022-08-27T05:21:05;100027.00;;;25.20
45850;BMP180;10739;52.198;20.908;2022-08-27T05:23:32;100019.00;;;25.20
45850;BMP180;10739;52.198;20.908;2022-08-27T05:25:59;100015.00;;;25.10
45850;BMP180;10739;52.198;20.908;2022-08-27T05:28:27;100012.00;;;25.40
45850;BMP180;10739;52.198;20.908;2022-08-27T05:31:04;100015.00;;;25.40
45850;BMP180;10739;52.198;20.908;2022-08-27T05:33:31;100018.00;;;25.60
45850;BMP180;10739;52.198;20.908;2022-08-27T05:35:59;100020.00;;;25.70
45850;BMP180;10739;52.198;20.908;2022-08-27T05:38:28;100022.00;;;25.90
45850;BMP180;10739;52.198;20.908;2022-08-27T05:41:14;100025.00;;;25.90
45850;BMP180;10739;52.198;20.908;2022-08-27T05:43:42;100019.00;;;25.90
45850;BMP180;10739;52.198;20.908;2022-08-27T05:46:13;100030.00;;;26.00
45850;BMP180;10739;52.198;20.908;2022-08-27T05:48:41;100026.00;;;25.70
45850;BMP180;10739;52.198;20.908;2022-08-27T05:51:31;100023.00;;;25.80
45850;BMP180;10739;52.198;20.908;2022-08-27T05:54:05;100027.00;;;25.80
45850;BMP180;10739;52.198;20.908;2022-08-27T05:56:34;100022.00;;;26.10
45850;BMP180;10739;52.198;20.908;2022-08-27T05:59:02;100026.00;;;26.30
45850;BMP180;10739;52.198;20.908;2022-08-27T06:01:49;100029.00;;;26.30
45850;BMP180;10739;52.198;20.908;2022-08-27T06:04:18;100025.00;;;26.70
45850;BMP180;10739;52.198;20.908;2022-08-27T06:06:45;100021.00;;;26.60
45850;BMP180;10739;52.198;20.908;2022-08-27T06:09:19;100023.00;;;26.60
45850;BMP180;10739;52.198;20.908;2022-08-27T06:11:46;100012.00;;;26.70
45850;BMP180;10739;52.198;20.908;2022-08-27T06:14:13;100011.00;;;26.90
45850;BMP180;10739;52.198;20.908;2022-08-27T06:16:41;100022.00;;;27.20
45850;BMP180;10739;52.198;20.908;2022-08-27T06:19:09;100022.00;;;27.20
45850;BMP180;10739;52.198;20.908;2022-08-27T06:21:37;100029.00;;;27.10
45850;BMP180;10739;52.198;20.908;2022-08-27T06:24:03;100019.00;;;27.60
45850;BMP180;10739;52.198;20.908;2022-08-27T06:26:29;100031.00;;;27.70
45850;BMP180;10739;52.198;20.908;2022-08-27T06:29:00;100028.00;;;27.70
45850;BMP180;10739;52.198;20.908;2022-08-27T06:31:27;100024.00;;;27.60
45850;BMP180;10739;52.198;20.908;2022-08-27T06:33:59;100030.00;;;27.70
45850;BMP180;10739;52.198;20.908;2022-08-27T06:36:26;100033.00;;;27.50
45850;BMP180;10739;52.198;20.908;2022-08-27T06:38:56;100026.00;;;27.80
45850;BMP180;10739;52.198;20.908;2022-08-27T06:41:26;100029.00;;;27.90
45850;BMP180;10739;52.198;20.908;2022-08-27T06:43:54;100033.00;;;28.20
45850;BMP180;10739;52.198;20.908;2022-08-27T06:46:24;100023.00;;;28.20
45850;BMP180;10739;52.198;20.908;2022-08-27T06:48:53;100025.00;;;28.40
45850;BMP180;10739;52.198;20.908;2022-08-27T06:51:24;100020.00;;;28.20
45850;BMP180;10739;52.198;20.908;2022-08-27T06:53:53;100024.00;;;28.40
45850;BMP180;10739;52.198;20.908;2022-08-27T06:56:21;100032.00;;;28.60
45850;BMP180;10739;52.198;20.908;2022-08-27T06:58:50;100031.00;;;28.70
45850;BMP180;10739;52.198;20.908;2022-08-27T07:01:30;100032.00;;;29.00
45850;BMP180;10739;52.198;20.908;2022-08-27T07:04:00;100034.00;;;28.80
45850;BMP180;10739;52.198;20.908;2022-08-27T07:06:30;100026.00;;;28.80
45850;BMP180;10739;52.198;20.908;2022-08-27T07:08:57;100023.00;;;28.80
45850;BMP180;10739;52.198;20.908;2022-08-27T07:11:23;100026.00;;;29.20
45850;BMP180;10739;52.198;20.908;2022-08-27T07:13:50;100017.00;;;29.60
45850;BMP180;10739;52.198;20.908;2022-08-27T07:16:19;100024.00;;;29.90
45850;BMP180;10739;52.198;20.908;2022-08-27T07:18:48;100021.00;;;29.90
45850;BMP180;10739;52.198;20.908;2022-08-27T07:21:15;100011.00;;;30.40
45850;BMP180;10739;52.198;20.908;2022-08-27T07:23:46;100010.00;;;30.50
45850;BMP180;10739;52.198;20.908;2022-08-27T07:26:15;100010.00;;;30.80
45850;BMP180;10739;52.198;20.908;2022-08-27T07:28:43;100015.00;;;30.90
45850;BMP180;10739;52.198;20.908;2022-08-27T07:31:15;100017.00;;;31.00
45850;BMP180;10739;52.198;20.908;2022-08-27T07:33:42;100019.00;;;31.00
45850;BMP180;10739;52.198;20.908;2022-08-27T07:36:09;100015.00;;;31.50
45850;BMP180;10739;52.198;20.908;2022-08-27T07:38:36;100018.00;;;31.30
45850;BMP180;10739;52.198;20.908;2022-08-27T07:41:08;100017.00;;;31.50
45850;BMP180;10739;52.198;20.908;2022-08-27T07:43:35;100020.00;;;31.60
45850;BMP180;10739;52.198;20.908;2022-08-27T07:46:21;100018.00;;;31.70
45850;BMP180;10739;52.198;20.908;2022-08-27T07:48:50;100017.00;;;31.80
45850;BMP180;10739;52.198;20.908;2022-08-27T07:51:22;100022.00;;;32.10
45850;BMP180;10739;52.198;20.908;2022-08-27T07:53:50;100016.00;;;31.90
45850;BMP180;10739;52.198;20.908;2022-08-27T07:56:24;100014.00;;;32.10
45850;BMP180;10739;52.198;20.908;2022-08-27T07:58:52;100009.00;;;32.30
45850;BMP180;10739;52.198;20.908;2022-08-27T08:01:20;100015.00;;;32.50
45850;BMP180;10739;52.198;20.908;2022-08-27T08:03:52;100018.00;;;32.70
45850;BMP180;10739;52.198;20.908;2022-08-27T08:06:21;100007.00;;;32.70
45850;BMP180;10739;52.198;20.908;2022-08-27T08:08:49;100016.00;;;32.90
45850;BMP180;10739;52.198;20.908;2022-08-27T08:11:19;100006.00;;;33.10
45850;BMP180;10739;52.198;20.908;2022-08-27T08:13:46;100009.00;;;33.10
45850;BMP180;10739;52.198;20.908;2022-08-27T08:16:14;100004.00;;;33.10
45850;BMP180;10739;52.198;20.908;2022-08-27T08:18:43;100012.00;;;33.70
45850;BMP180;10739;52.198;20.908;2022-08-27T08:21:13;100006.00;;;33.90
45850;BMP180;10739;52.198;20.908;2022-08-27T08:23:40;100010.00;;;34.20
45850;BMP180;10739;52.198;20.908;2022-08-27T08:26:09;100012.00;;;34.10
45850;BMP180;10739;52.198;20.908;2022-08-27T08:28:36;100014.00;;;34.30
45850;BMP180;10739;52.198;20.908;2022-08-27T08:31:03;100016.00;;;34.80
45850;BMP180;10739;52.198;20.908;2022-08-27T08:33:29;100013.00;;;35.10
45850;BMP180;10739;52.198;20.908;2022-08-27T08:36:11;100015.00;;;35.10
45850;BMP180;10739;52.198;20.908;2022-08-27T08:38:39;100023.00;;;35.00
45850;BMP180;10739;52.198;20.908;2022-08-27T08:41:37;100018.00;;;35.20
45850;BMP180;10739;52.198;20.908;2022-08-27T08:44:31;100026.00;;;35.90
45850;BMP180;10739;52.198;20.908;2022-08-27T08:47:21;100027.00;;;36.30
45850;BMP180;10739;52.198;20.908;2022-08-27T09:01:02;100029.00;;;38.50
45850;BMP180;10739;52.198;20.908;2022-08-27T09:03:34;100025.00;;;39.30
45850;BMP180;10739;52.198;20.908;2022-08-27T09:06:44;100025.00;;;39.40
45850;BMP180;10739;52.198;20.908;2022-08-27T09:09:25;100030.00;;;39.70
45850;BMP180;10739;52.198;20.908;2022-08-27T09:12:17;100027.00;;;40.60
45850;BMP180;10739;52.198;20.908;2022-08-27T09:15:04;100032.00;;;40.90
45850;BMP180;10739;52.198;20.908;2022-08-27T09:17:33;100026.00;;;40.30
45850;BMP180;10739;52.198;20.908;2022-08-27T09:20:00;100023.00;;;40.80
45850;BMP180;10739;52.198;20.908;2022-08-27T09:22:52;100022.00;;;41.30
45850;BMP180;10739;52.198;20.908;2022-08-27T09:25:36;100025.00;;;41.80
45850;BMP180;10739;52.198;20.908;2022-08-27T09:28:15;100022.00;;;41.30
45850;BMP180;10739;52.198;20.908;2022-08-27T09:31:17;100029.00;;;41.30
45850;BMP180;10739;52.198;20.908;2022-08-27T09:33:45;100023.00;;;41.50
45850;BMP180;10739;52.198;20.908;2022-08-27T09:36:16;100017.00;;;40.60
45850;BMP180;10739;52.198;20.908;2022-08-27T09:38:56;100023.00;;;41.00
45850;BMP180;10739;52.198;20.908;2022-08-27T09:41:29;100016.00;;;41.80
45850;BMP180;10739;52.198;20.908;2022-08-27T09:44:07;100019.00;;;42.00
45850;BMP180;10739;52.198;20.908;2022-08-27T09:46:35;100018.00;;;42.10
45850;BMP180;10739;52.198;20.908;2022-08-27T09:49:15;100017.00;;;42.00
45850;BMP180;10739;52.198;20.908;2022-08-27T09:51:45;100023.00;;;42.40
45850;BMP180;10739;52.198;20.908;2022-08-27T09:54:37;100017.00;;;42.60
45850;BMP180;10739;52.198;20.908;2022-08-27T09:57:06;100020.00;;;43.00
45850;BMP180;10739;52.198;20.908;2022-08-27T09:59:51;100016.00;;;43.10
45850;BMP180;10739;52.198;20.908;2022-08-27T10:02:22;100021.00;;;43.20
45850;BMP180;10739;52.198;20.908;2022-08-27T10:04:56;100016.00;;;42.90
45850;BMP180;10739;52.198;20.908;2022-08-27T10:07:50;100013.00;;;42.10
45850;BMP180;10739;52.198;20.908;2022-08-27T10:10:28;100019.00;;;41.80
45850;BMP180;10739;52.198;20.908;2022-08-27T10:13:17;100016.00;;;43.00
45850;BMP180;10739;52.198;20.908;2022-08-27T10:16:17;100008.00;;;43.10
45850;BMP180;10739;52.198;20.908;2022-08-27T10:19:03;100012.00;;;43.30
45850;BMP180;10739;52.198;20.908;2022-08-27T10:25:25;100004.00;;;43.40
45850;BMP180;10739;52.198;20.908;2022-08-27T10:33:49;100008.00;;;43.70
45850;BMP180;10739;52.198;20.908;2022-08-27T10:48:44;99990.00;;;42.30
45850;BMP180;10739;52.198;20.908;2022-08-27T10:51:23;99987.00;;;42.70
45850;BMP180;10739;52.198;20.908;2022-08-27T10:56:41;99984.00;;;42.10
45850;BMP180;10739;52.198;20.908;2022-08-27T11:02:40;99990.00;;;41.70
45850;BMP180;10739;52.198;20.908;2022-08-27T11:05:17;99989.00;;;39.30
45850;BMP180;10739;52.198;20.908;2022-08-27T11:07:52;99989.00;;;38.20
45850;BMP180;10739;52.198;20.908;2022-08-27T11:10:29;99989.00;;;38.00
45850;BMP180;10739;52.198;20.908;2022-08-27T11:13:04;99985.00;;;37.40
45850;BMP180;10739;52.198;20.908;2022-08-27T11:15:36;99987.00;;;37.70
45850;BMP180;10739;52.198;20.908;2022-08-27T11:23:56;99981.00;;;37.10
45850;BMP180;10739;52.198;20.908;2022-08-27T11:26:23;99979.00;;;36.80
45850;BMP180;10739;52.198;20.908;2022-08-27T11:28:58;99985.00;;;36.70
45850;BMP180;10739;52.198;20.908;2022-08-27T11:31:42;99978.00;;;36.90
45850;BMP180;10739;52.198;20.908;2022-08-27T11:34:36;99984.00;;;36.40
45850;BMP180;10739;52.198;20.908;2022-08-27T11:43:16;99979.00;;;36.80
45850;BMP180;10739;52.198;20.908;2022-08-27T11:45:58;99980.00;;;36.70
45850;BMP180;10739;52.198;20.908;2022-08-27T11:53:58;99976.00;;;37.30
45850;BMP180;10739;52.198;20.908;2022-08-27T11:59:31;99978.00;;;37.20
45850;BMP180;10739;52.198;20.908;2022-08-27T12:02:28;99976.00;;;37.80
45850;BMP180;10739;52.198;20.908;2022-08-27T12:05:37;99973.00;;;39.10
45850;BMP180;10739;52.198;20.908;2022-08-27T12:14:10;99971.00;;;38.50
45850;BMP180;10739;52.198;20.908;2022-08-27T12:17:01;99968.00;;;39.10
45850;BMP180;10739;52.198;20.908;2022-08-27T12:20:05;99967.00;;;40.80
45850;BMP180;10739;52.198;20.908;2022-08-27T12:26:30;99960.00;;;39.10
45850;BMP180;10739;52.198;20.908;2022-08-27T12:29:23;99967.00;;;39.80
45850;BMP180;10739;52.198;20.908;2022-08-27T12:31:59;99957.00;;;40.30
45850;BMP180;10739;52.198;20.908;2022-08-27T12:34:43;99952.00;;;39.90
45850;BMP180;10739;52.198;20.908;2022-08-27T12:37:12;99963.00;;;40.30
45850;BMP180;10739;52.198;20.908;2022-08-27T12:39:42;99963.00;;;40.20
45850;BMP180;10739;52.198;20.908;2022-08-27T12:42:18;99961.00;;;38.90
45850;BMP180;10739;52.198;20.908;2022-08-27T12:44:52;99968.00;;;37.90
45850;BMP180;10739;52.198;20.908;2022-08-27T12:47:19;99964.00;;;39.40
45850;BMP180;10739;52.198;20.908;2022-08-27T12:49:57;99960.00;;;40.00
45850;BMP180;10739;52.198;20.908;2022-08-27T12:58:52;99967.00;;;36.90
45850;BMP180;10739;52.198;20.908;2022-08-27T13:04:45;99960.00;;;37.90
45850;BMP180;10739;52.198;20.908;2022-08-27T13:07:30;99954.00;;;37.90
45850;BMP180;10739;52.198;20.908;2022-08-27T13:10:16;99959.00;;;37.60
45850;BMP180;10739;52.198;20.908;2022-08-27T13:12:45;99948.00;;;38.30
45850;BMP180;10739;52.198;20.908;2022-08-27T13:15:14;99948.00;;;38.20
45850;BMP180;10739;52.198;20.908;2022-08-27T13:17:45;99949.00;;;38.00
45850;BMP180;10739;52.198;20.908;2022-08-27T13:20:19;99947.00;;;37.50
45850;BMP180;10739;52.198;20.908;2022-08-27T13:22:49;99951.00;;;37.50
45850;BMP180;10739;52.198;20.908;2022-08-27T13:25:33;99957.00;;;37.40
45850;BMP180;10739;52.198;20.908;2022-08-27T13:28:07;99957.00;;;37.10
45850;BMP180;10739;52.198;20.908;2022-08-27T13:30:38;99950.00;;;37.10
45850;BMP180;10739;52.198;20.908;2022-08-27T13:33:09;99956.00;;;37.60
45850;BMP180;10739;52.198;20.908;2022-08-27T13:35:36;99953.00;;;38.70
45850;BMP180;10739;52.198;20.908;2022-08-27T13:38:03;99957.00;;;39.20
45850;BMP180;10739;52.198;20.908;2022-08-27T13:40:35;99946.00;;;39.20
45850;BMP180;10739;52.198;20.908;2022-08-27T13:43:09;99950.00;;;38.30
45850;BMP180;10739;52.198;20.908;2022-08-27T13:45:39;99952.00;;;39.00
45850;BMP180;10739;52.198;20.908;2022-08-27T13:48:16;99940.00;;;39.60
45850;BMP180;10739;52.198;20.908;2022-08-27T13:50:51;99946.00;;;39.30
45850;BMP180;10739;52.198;20.908;2022-08-27T13:53:25;99941.00;;;38.90
45850;BMP180;10739;52.198;20.908;2022-08-27T13:56:26;99946.00;;;38.50
45850;BMP180;10739;52.198;20.908;2022-08-27T13:58:53;99942.00;;;40.10
45850;BMP180;10739;52.198;20.908;2022-08-27T14:01:29;99942.00;;;39.30
45850;BMP180;10739;52.198;20.908;2022-08-27T14:04:04;99942.00;;;39.90
45850;BMP180;10739;52.198;20.908;2022-08-27T14:06:49;99932.00;;;40.50
45850;BMP180;10739;52.198;20.908;2022-08-27T14:09:27;99935.00;;;40.60
45850;BMP180;10739;52.198;20.908;2022-08-27T14:12:26;99931.00;;;40.00
45850;BMP180;10739;52.198;20.908;2022-08-27T14:14:53;99935.00;;;40.60
45850;BMP180;10739;52.198;20.908;2022-08-27T14:17:35;99926.00;;;39.70
45850;BMP180;10739;52.198;20.908;2022-08-27T14:20:05;99937.00;;;40.50
45850;BMP180;10739;52.198;20.908;2022-08-27T14:22:32;99932.00;;;41.40
45850;BMP180;10739;52.198;20.908;2022-08-27T14:25:00;99933.00;;;40.20
45850;BMP180;10739;52.198;20.908;2022-08-27T14:27:28;99930.00;;;40.00
45850;BMP180;10739;52.198;20.908;2022-08-27T14:29:54;99928.00;;;39.40
45850;BMP180;10739;52.198;20.908;2022-08-27T14:32:21;99923.00;;;39.60
45850;BMP180;10739;52.198;20.908;2022-08-27T14:34:47;99927.00;;;39.60
45850;BMP180;10739;52.198;20.908;2022-08-27T14:37:14;99933.00;;;40.60
45850;BMP180;10739;52.198;20.908;2022-08-27T14:39:41;99926.00;;;39.40
45850;BMP180;10739;52.198;20.908;2022-08-27T14:42:09;99926.00;;;39.10
45850;BMP180;10739;52.198;20.908;2022-08-27T14:44:37;99931.00;;;38.40
45850;BMP180;10739;52.198;20.908;2022-08-27T14:47:05;99929.00;;;37.60
45850;BMP180;10739;52.198;20.908;2022-08-27T14:49:36;99930.00;;;37.70
45850;BMP180;10739;52.198;20.908;2022-08-27T14:52:06;99925.00;;;37.80
45850;BMP180;10739;52.198;20.908;2022-08-27T14:54:33;99926.00;;;37.40
45850;BMP180;10739;52.198;20.908;2022-08-27T14:57:01;99929.00;;;37.60
45850;BMP180;10739;52.198;20.908;2022-08-27T14:59:28;99921.00;;;37.80
45850;BMP180;10739;52.198;20.908;2022-08-27T15:01:57;99926.00;;;37.70
45850;BMP180;10739;52.198;20.908;2022-08-27T15:04:26;99922.00;;;36.90
45850;BMP180;10739;52.198;20.908;2022-08-27T15:06:52;99919.00;;;36.50
45850;BMP180;10739;52.198;20.908;2022-08-27T15:09:18;99921.00;;;36.30
45850;BMP180;10739;52.198;20.908;2022-08-27T15:11:46;99919.00;;;36.20
45850;BMP180;10739;52.198;20.908;2022-08-27T15:14:28;99912.00;;;35.90
45850;BMP180;10739;52.198;20.908;2022-08-27T15:16:57;99918.00;;;35.50
45850;BMP180;10739;52.198;20.908;2022-08-27T15:19:26;99917.00;;;35.70
45850;BMP180;10739;52.198;20.908;2022-08-27T15:24:46;99924.00;;;35.70
45850;BMP180;10739;52.198;20.908;2022-08-27T15:27:13;99924.00;;;35.60
45850;BMP180;10739;52.198;20.908;2022-08-27T15:29:40;99922.00;;;35.80
45850;BMP180;10739;52.198;20.908;2022-08-27T15:32:26;99917.00;;;35.40
45850;BMP180;10739;52.198;20.908;2022-08-27T15:34:55;99914.00;;;35.20
45850;BMP180;10739;52.198;20.908;2022-08-27T15:37:22;99918.00;;;35.30
45850;BMP180;10739;52.198;20.908;2022-08-27T15:39:49;99909.00;;;35.60
45850;BMP180;10739;52.198;20.908;2022-08-27T15:42:16;99918.00;;;35.70